createdAt,value
2022-08-27T00:02:24.717Z,48.87
2022-08-27T00:05:26.812Z,49.17
2022-08-27T00:08:28.476Z,49.36
2022-08-27T00:11:30.311Z,49.13
2022-08-27T00:14:32.101Z,49.27
2022-08-27T00:17:35.226Z,48.89
2022-08-27T00:20:36.824Z,49.01
2022-08-27T00:23:39.909Z,48.98
2022-08-27T00:26:43.409Z,49.02
2022-08-27T00:29:46.574Z,49.23
2022-08-27T00:32:48.933Z,49.44
2022-08-27T00:35:51.486Z,49.11
2022-08-27T00:38:53.963Z,49.25
2022-08-27T00:41:55.815Z,49.16
2022-08-27T00:44:57.370Z,49.09
2022-08-27T00:48:01.049Z,49.33
2022-08-27T00:51:02.954Z,49.45
2022-08-27T00:54:07.281Z,49.45
2022-08-27T00:57:09.150Z,49.32
2022-08-27T01:00:18.449Z,49.17
2022-08-27T01:03:20.621Z,49.56
2022-08-27T01:06:24.849Z,49.54
2022-08-27T01:09:27.183Z,49.20
2022-08-27T01:12:31.609Z,49.65
2022-08-27T01:15:33.259Z,49.24
2022-08-27T01:18:37.784Z,49.34
2022-08-27T01:21:49.682Z,49.35
2022-08-27T01:24:55.184Z,49.50
2022-08-27T01:28:00.578Z,49.68
2022-08-27T01:31:05.491Z,49.41
2022-08-27T01:34:07.124Z,49.28
2022-08-27T01:37:09.654Z,49.44
2022-08-27T01:40:13.631Z,49.46
2022-08-27T01:43:15.845Z,49.45
2022-08-27T01:46:22.955Z,49.86
2022-08-27T01:49:24.635Z,49.95
2022-08-27T01:52:29.016Z,49.98
2022-08-27T01:55:30.701Z,49.83
2022-08-27T01:58:33.600Z,49.64
2022-08-27T02:01:35.582Z,49.58
2022-08-27T02:04:38.229Z,49.66
2022-08-27T02:07:40.760Z,49.82
2022-08-27T02:10:44.390Z,49.91
2022-08-27T02:13:46.152Z,49.99
2022-08-27T02:16:52.093Z,49.98
2022-08-27T02:19:54.655Z,49.73
2022-08-27T02:22:56.339Z,49.78
2022-08-27T02:25:57.986Z,49.96
2022-08-27T02:28:59.941Z,49.84
2022-08-27T02:32:02.060Z,50.16
2022-08-27T02:35:05.049Z,50.06
2022-08-27T02:38:08.392Z,49.80
2022-08-27T02:41:10.262Z,49.96
2022-08-27T02:44:11.980Z,49.92
2022-08-27T02:47:16.772Z,49.82
2022-08-27T02:50:18.503Z,49.72
2022-08-27T02:53:20.789Z,49.74
2022-08-27T02:56:22.803Z,50.23
2022-08-27T02:59:24.999Z,50.03
2022-08-27T03:02:27.642Z,50.08
2022-08-27T03:05:29.366Z,50.14
2022-08-27T03:08:30.939Z,49.91
2022-08-27T03:11:53.573Z,50.01
2022-08-27T03:14:55.193Z,50.09
2022-08-27T03:18:15.263Z,49.91
2022-08-27T03:21:24.318Z,49.88
2022-08-27T03:24:26.078Z,49.86
2022-08-27T03:27:28.040Z,50.17
2022-08-27T03:30:29.793Z,50.28
2022-08-27T03:33:36.573Z,49.95
2022-08-27T03:36:38.149Z,50.07
2022-08-27T03:39:39.865Z,50.30
2022-08-27T03:42:41.807Z,50.15
2022-08-27T03:45:57.071Z,50.32
2022-08-27T03:49:04.332Z,50.15
2022-08-27T03:52:06.017Z,49.94
2022-08-27T03:55:09.224Z,50.22
2022-08-27T03:58:12.168Z,50.00
2022-08-27T04:01:14.124Z,50.00
2022-08-27T04:04:15.961Z,50.09
2022-08-27T04:07:17.555Z,50.24
2022-08-27T04:10:19.172Z,50.27
2022-08-27T04:13:22.184Z,50.04
2022-08-27T04:16:25.713Z,50.39
2022-08-27T04:19:33.065Z,50.22
2022-08-27T04:22:35.215Z,50.48
2022-08-27T04:25:43.711Z,50.39
2022-08-27T04:28:48.823Z,50.02
2022-08-27T04:31:50.539Z,50.07
2022-08-27T04:34:57.136Z,50.43
2022-08-27T04:37:58.765Z,50.17
2022-08-27T04:41:19.928Z,50.23
2022-08-27T04:44:22.812Z,50.49
2022-08-27T04:47:24.436Z,50.14
2022-08-27T04:50:26.137Z,50.25
2022-08-27T04:53:27.752Z,50.27
2022-08-27T04:56:30.097Z,50.57
2022-08-27T04:59:33.259Z,50.38
2022-08-27T05:02:34.936Z,50.52
2022-08-27T05:05:37.319Z,50.52
2022-08-27T05:08:44.742Z,50.50
2022-08-27T05:11:47.136Z,50.59
2022-08-27T05:14:48.822Z,50.60
2022-08-27T05:17:50.511Z,50.75
2022-08-27T05:20:52.106Z,50.25
2022-08-27T05:23:55.596Z,50.47
2022-08-27T05:26:57.261Z,50.58
2022-08-27T05:29:59.137Z,50.23
2022-08-27T05:33:00.978Z,50.43
2022-08-27T05:36:03.011Z,50.20
2022-08-27T05:39:06.246Z,50.08
2022-08-27T05:42:07.856Z,50.45
2022-08-27T05:45:10.104Z,50.42
2022-08-27T05:48:17.104Z,50.49
2022-08-27T05:51:25.246Z,50.49
2022-08-27T05:54:27.625Z,50.27
2022-08-27T05:57:29.293Z,50.08
2022-08-27T06:00:49.705Z,50.25
2022-08-27T06:03:52.893Z,50.35
2022-08-27T06:06:54.724Z,50.42
2022-08-27T06:09:58.845Z,50.24
2022-08-27T06:13:03.524Z,50.38
2022-08-27T06:16:06.758Z,50.22
2022-08-27T06:19:12.241Z,49.98
2022-08-27T06:22:14.719Z,49.91
2022-08-27T06:25:16.471Z,50.54
2022-08-27T06:28:21.750Z,49.92
2022-08-27T06:31:26.869Z,50.41
2022-08-27T06:34:28.537Z,49.92
2022-08-27T06:37:30.339Z,50.28
2022-08-27T06:40:32.064Z,50.02
2022-08-27T06:43:36.318Z,50.26
2022-08-27T06:46:38.847Z,50.24
2022-08-27T06:49:43.834Z,50.34
2022-08-27T06:52:48.226Z,50.12
2022-08-27T06:55:50.073Z,50.35
2022-08-27T06:58:56.670Z,49.92
2022-08-27T07:01:58.327Z,49.92
2022-08-27T07:05:00.245Z,50.29
2022-08-27T07:08:02.979Z,50.34
2022-08-27T07:11:04.999Z,50.29
2022-08-27T07:14:07.625Z,50.36
2022-08-27T07:17:11.203Z,50.19
2022-08-27T07:20:19.368Z,50.23
2022-08-27T07:23:21.641Z,50.02
2022-08-27T07:26:23.934Z,50.17
2022-08-27T07:29:27.477Z,49.92
2022-08-27T07:32:33.536Z,49.91
2022-08-27T07:35:35.263Z,49.76
2022-08-27T07:38:37.420Z,50.04
2022-08-27T07:41:59.077Z,49.79
2022-08-27T07:45:00.779Z,50.06
2022-08-27T07:48:03.098Z,50.09
2022-08-27T07:51:05.515Z,49.76
2022-08-27T07:54:07.165Z,50.10
2022-08-27T07:57:12.089Z,50.20
2022-08-27T08:00:14.605Z,49.95
2022-08-27T08:03:16.191Z,50.20
2022-08-27T08:06:18.000Z,49.71
2022-08-27T08:09:22.167Z,49.76
2022-08-27T08:12:26.408Z,50.00
2022-08-27T08:15:28.471Z,49.68
2022-08-27T08:18:30.352Z,49.97
2022-08-27T08:21:32.059Z,49.60
2022-08-27T08:24:36.508Z,49.95
2022-08-27T08:27:38.267Z,50.01
2022-08-27T08:30:43.692Z,49.59
2022-08-27T08:33:46.970Z,49.88
2022-08-27T08:36:54.460Z,49.90
2022-08-27T08:39:56.753Z,49.98
2022-08-27T08:42:59.871Z,49.88
2022-08-27T08:46:12.880Z,49.70
2022-08-27T08:49:33.166Z,49.50
2022-08-27T08:52:35.152Z,49.92
2022-08-27T08:55:48.658Z,49.72
2022-08-27T08:58:50.366Z,49.77
2022-08-27T09:01:52.375Z,49.54
2022-08-27T09:04:54.563Z,49.39
2022-08-27T09:08:31.392Z,49.81
2022-08-27T09:11:39.923Z,49.55
2022-08-27T09:14:53.512Z,49.49
2022-08-27T09:18:14.370Z,49.27
2022-08-27T09:21:34.617Z,49.57
2022-08-27T09:25:05.735Z,49.37
2022-08-27T09:28:32.736Z,49.35
2022-08-27T09:31:40.969Z,49.13
2022-08-27T09:34:45.230Z,49.21
2022-08-27T09:37:51.714Z,48.92
2022-08-27T09:40:53.471Z,49.51
2022-08-27T09:44:01.121Z,49.28
2022-08-27T09:47:03.801Z,48.91
2022-08-27T09:50:08.943Z,48.98
2022-08-27T09:53:25.510Z,48.98
2022-08-27T09:56:31.384Z,48.98
2022-08-27T09:59:43.329Z,48.98
2022-08-27T10:02:53.418Z,49.01
2022-08-27T10:05:55.356Z,48.87
2022-08-27T10:09:16.806Z,48.70
2022-08-27T10:12:28.319Z,48.57
2022-08-27T10:15:41.301Z,49.05
2022-08-27T10:19:17.694Z,48.55
2022-08-27T10:22:41.793Z,49.02
2022-08-27T10:25:59.067Z,48.62
2022-08-27T10:29:23.883Z,48.39
2022-08-27T10:32:55.342Z,48.62
2022-08-27T10:36:08.849Z,48.71
2022-08-27T10:39:24.554Z,48.71
2022-08-27T10:42:34.475Z,48.48
2022-08-27T10:45:51.319Z,48.61
2022-08-27T10:49:21.389Z,48.12
2022-08-27T10:52:28.565Z,48.27
2022-08-27T10:55:36.327Z,48.02
2022-08-27T10:59:01.018Z,48.20
2022-08-27T11:02:11.538Z,48.32
2022-08-27T11:05:37.336Z,48.11
2022-08-27T11:08:44.558Z,48.13
2022-08-27T11:15:22.207Z,48.24
2022-08-27T11:18:31.742Z,47.82
2022-08-27T11:21:46.005Z,47.59
2022-08-27T11:25:13.859Z,47.64
2022-08-27T11:28:17.869Z,47.60
2022-08-27T11:31:36.859Z,47.28
2022-08-27T11:34:42.258Z,47.29
2022-08-27T11:37:55.925Z,47.27
2022-08-27T11:41:00.353Z,47.19
2022-08-27T11:44:03.229Z,47.20
2022-08-27T11:47:15.053Z,47.20
2022-08-27T11:50:20.489Z,47.10
2022-08-27T11:53:59.337Z,47.16
2022-08-27T11:57:01.147Z,46.96
2022-08-27T12:00:30.611Z,46.98
2022-08-27T12:03:35.352Z,46.72
2022-08-27T12:06:43.173Z,46.73
2022-08-27T12:09:56.571Z,46.63
2022-08-27T12:13:39.052Z,46.48
2022-08-27T12:17:02.356Z,46.46
2022-08-27T12:20:32.569Z,46.50
2022-08-27T12:23:51.115Z,46.56
2022-08-27T12:27:01.964Z,46.53
2022-08-27T12:30:26.560Z,46.49
2022-08-27T12:33:35.304Z,46.40
2022-08-27T12:36:37.148Z,46.44
2022-08-27T12:39:43.718Z,46.21
2022-08-27T12:42:45.555Z,46.17
2022-08-27T12:45:57.435Z,46.11
2022-08-27T12:49:12.847Z,46.35
2022-08-27T12:53:06.089Z,46.16
2022-08-27T12:56:23.149Z,46.11
2022-08-27T12:59:37.155Z,45.84
2022-08-27T13:03:03.297Z,45.76
2022-08-27T13:06:19.049Z,45.98
2022-08-27T13:09:33.905Z,45.88
2022-08-27T13:12:35.690Z,45.69
2022-08-27T13:15:43.688Z,45.71
2022-08-27T13:18:50.341Z,45.76
2022-08-27T13:21:54.210Z,45.62
2022-08-27T13:24:56.812Z,45.59
2022-08-27T13:28:08.172Z,45.47
2022-08-27T13:31:11.410Z,45.50
2022-08-27T13:34:19.644Z,45.48
2022-08-27T13:37:33.801Z,45.14
2022-08-27T13:41:01.608Z,45.28
2022-08-27T13:44:14.464Z,45.22
2022-08-27T13:47:25.563Z,45.17
2022-08-27T13:50:32.380Z,45.62
2022-08-27T13:53:52.729Z,45.46
2022-08-27T13:56:55.132Z,45.43
2022-08-27T14:00:08.837Z,45.30
2022-08-27T14:03:35.282Z,45.40
2022-08-27T14:06:43.741Z,45.34
2022-08-27T14:09:54.337Z,45.25
2022-08-27T14:13:00.093Z,45.22
2022-08-27T14:16:23.765Z,45.07
2022-08-27T14:19:25.355Z,45.22
2022-08-27T14:22:27.069Z,45.15
2022-08-27T14:25:28.745Z,45.21
2022-08-27T14:28:31.639Z,45.18
2022-08-27T14:31:33.378Z,45.21
2022-08-27T14:34:36.039Z,45.19
2022-08-27T14:37:39.544Z,45.07
2022-08-27T14:40:43.364Z,44.96
2022-08-27T14:43:49.276Z,45.03
2022-08-27T14:46:53.143Z,44.94
2022-08-27T14:49:54.929Z,45.00
2022-08-27T14:52:56.533Z,44.87
2022-08-27T14:55:59.432Z,45.05
2022-08-27T14:59:01.138Z,44.94
2022-08-27T15:02:07.055Z,44.72
2022-08-27T15:05:12.011Z,44.82
2022-08-27T15:08:15.905Z,44.93
2022-08-27T15:11:28.384Z,44.74
2022-08-27T15:14:35.102Z,44.84
2022-08-27T15:17:37.205Z,44.88
2022-08-27T15:20:41.729Z,44.97
2022-08-27T15:23:48.350Z,45.05
2022-08-27T15:26:54.528Z,45.07
2022-08-27T15:29:56.116Z,45.06
2022-08-27T15:32:57.948Z,44.87
2022-08-27T15:36:03.511Z,45.07
2022-08-27T15:39:06.381Z,44.92
2022-08-27T15:42:08.840Z,44.90
2022-08-27T15:45:13.034Z,44.89
2022-08-27T15:48:14.630Z,44.80
2022-08-27T15:51:17.729Z,44.85
2022-08-27T15:54:19.552Z,44.57
2022-08-27T15:57:21.648Z,44.84
2022-08-27T16:00:24.396Z,44.42
2022-08-27T16:03:29.897Z,44.75
2022-08-27T16:06:38.756Z,44.65
2022-08-27T16:09:41.197Z,44.97
2022-08-27T16:12:42.856Z,44.77
2022-08-27T16:15:44.566Z,44.66
2022-08-27T16:18:46.255Z,45.00
2022-08-27T16:21:48.061Z,44.78
2022-08-27T16:24:52.681Z,44.87
2022-08-27T16:27:54.421Z,44.75
2022-08-27T16:30:56.790Z,44.80
2022-08-27T16:33:59.708Z,45.09
2022-08-27T16:37:01.477Z,44.79
2022-08-27T16:40:03.646Z,44.62
2022-08-27T16:43:05.454Z,45.00
2022-08-27T16:46:07.287Z,44.61
2022-08-27T16:49:27.540Z,44.72
2022-08-27T16:52:30.153Z,44.88
2022-08-27T16:55:32.643Z,44.59
2022-08-27T16:58:34.242Z,44.61
2022-08-27T17:01:36.570Z,44.72
2022-08-27T17:04:41.929Z,45.11
2022-08-27T17:07:44.602Z,44.72
2022-08-27T17:10:55.552Z,45.11
2022-08-27T17:13:59.866Z,45.04
2022-08-27T17:17:01.546Z,45.10
2022-08-27T17:20:04.197Z,45.16
2022-08-27T17:23:20.353Z,45.08
2022-08-27T17:26:23.348Z,44.77
2022-08-27T17:29:25.043Z,45.15
2022-08-27T17:32:27.219Z,45.13
2022-08-27T17:35:29.057Z,45.20
2022-08-27T17:38:33.916Z,44.80
2022-08-27T17:41:39.510Z,44.92
2022-08-27T17:44:41.098Z,45.11
2022-08-27T17:47:43.850Z,44.80
2022-08-27T17:50:45.865Z,45.19
2022-08-27T17:53:51.270Z,45.13
2022-08-27T17:56:52.977Z,45.21
2022-08-27T17:59:55.983Z,45.20
2022-08-27T18:02:57.708Z,45.28
2022-08-27T18:05:59.358Z,45.23
2022-08-27T18:09:01.098Z,45.33
2022-08-27T18:12:04.611Z,44.99
2022-08-27T18:15:25.470Z,45.14
2022-08-27T18:18:27.188Z,45.28
2022-08-27T18:21:31.596Z,45.29
2022-08-27T18:24:33.265Z,44.96
2022-08-27T18:27:37.405Z,45.06
2022-08-27T18:30:43.514Z,44.93
2022-08-27T18:33:45.537Z,45.03
2022-08-27T18:36:47.121Z,45.40
2022-08-27T18:39:49.862Z,45.27
2022-08-27T18:42:51.681Z,45.41
2022-08-27T18:45:53.443Z,45.48
2022-08-27T18:48:55.332Z,45.29
2022-08-27T18:51:57.247Z,45.15
2022-08-27T18:54:59.038Z,45.60
2022-08-27T18:58:01.498Z,45.05
2022-08-27T19:01:04.865Z,45.18
2022-08-27T19:04:06.724Z,45.50
2022-08-27T19:07:08.569Z,45.35
2022-08-27T19:10:11.236Z,45.46
2022-08-27T19:13:15.182Z,45.33
2022-08-27T19:16:24.307Z,45.39
2022-08-27T19:19:26.139Z,45.18
2022-08-27T19:22:30.669Z,45.15
2022-08-27T19:25:32.938Z,45.10
2022-08-27T19:28:39.667Z,45.25
2022-08-27T19:31:41.401Z,45.02
2022-08-27T19:34:43.238Z,44.92
2022-08-27T19:37:53.176Z,45.06
2022-08-27T19:40:55.568Z,45.37
2022-08-27T19:43:57.870Z,45.03
2022-08-27T19:46:59.853Z,45.41
2022-08-27T19:50:01.619Z,45.41
2022-08-27T19:53:03.420Z,45.27
2022-08-27T19:56:07.525Z,45.43
2022-08-27T19:59:20.413Z,45.46
2022-08-27T20:02:22.925Z,45.56
2022-08-27T20:05:24.676Z,45.26
2022-08-27T20:08:26.465Z,45.49
2022-08-27T20:11:28.101Z,45.28
2022-08-27T20:14:29.705Z,45.35
2022-08-27T20:17:33.083Z,45.31
2022-08-27T20:20:35.217Z,45.27
2022-08-27T20:23:36.871Z,45.34
2022-08-27T20:26:39.350Z,45.52
2022-08-27T20:29:41.609Z,45.36
2022-08-27T20:32:43.339Z,45.35
2022-08-27T20:35:45.080Z,45.51
2022-08-27T20:38:46.904Z,45.58
2022-08-27T20:41:48.775Z,45.53
2022-08-27T20:44:50.576Z,45.54
2022-08-27T20:47:53.832Z,45.39
2022-08-27T20:50:56.458Z,45.60
2022-08-27T20:53:58.161Z,45.63
2022-08-27T20:56:59.804Z,45.61
2022-08-27T21:00:20.124Z,45.76
2022-08-27T21:03:21.915Z,45.98
2022-08-27T21:06:26.449Z,45.83
2022-08-27T21:09:28.363Z,45.82
2022-08-27T21:12:31.043Z,45.72
2022-08-27T21:15:33.094Z,45.72
2022-08-27T21:18:35.484Z,45.85
2022-08-27T21:21:37.151Z,45.97
2022-08-27T21:24:38.916Z,45.81
2022-08-27T21:27:41.997Z,45.93
2022-08-27T21:30:45.188Z,45.81
2022-08-27T21:33:47.285Z,45.96
2022-08-27T21:36:48.876Z,46.01
2022-08-27T21:39:50.510Z,45.94
2022-08-27T21:42:53.224Z,45.97
2022-08-27T21:45:57.476Z,46.08
2022-08-27T21:48:59.326Z,46.14
2022-08-27T21:52:03.577Z,46.16
2022-08-27T21:55:06.516Z,46.19
2022-08-27T21:58:08.108Z,46.11
2022-08-27T22:01:09.883Z,46.09
2022-08-27T22:04:12.112Z,46.33
2022-08-27T22:07:13.694Z,46.21
2022-08-27T22:10:15.636Z,46.32
2022-08-27T22:13:17.341Z,46.28
2022-08-27T22:16:19.521Z,46.13
2022-08-27T22:19:22.329Z,46.32
2022-08-27T22:22:23.961Z,46.28
2022-08-27T22:25:33.000Z,46.31
2022-08-27T22:28:34.658Z,46.38
2022-08-27T22:31:36.427Z,46.54
2022-08-27T22:34:38.079Z,46.38
2022-08-27T22:37:39.864Z,46.61
2022-08-27T22:40:41.866Z,46.65
2022-08-27T22:43:43.752Z,46.66
2022-08-27T22:46:45.526Z,46.62
2022-08-27T22:49:47.280Z,46.69
2022-08-27T22:52:54.468Z,46.90
2022-08-27T22:55:56.501Z,46.92
2022-08-27T22:58:58.284Z,47.04
2022-08-27T23:02:01.626Z,46.99
2022-08-27T23:05:06.886Z,47.10
2022-08-27T23:08:10.358Z,47.11
2022-08-27T23:11:12.536Z,46.98
2022-08-27T23:14:14.426Z,47.17
2022-08-27T23:17:16.199Z,47.32
2022-08-27T23:20:21.973Z,46.98
2022-08-27T23:23:25.802Z,47.29
2022-08-27T23:26:50.413Z,47.42
2022-08-27T23:29:52.004Z,47.06
2022-08-27T23:32:54.877Z,47.09
2022-08-27T23:35:56.532Z,47.26
2022-08-27T23:38:58.524Z,47.31
2022-08-27T23:42:00.165Z,47.38
2022-08-27T23:45:01.844Z,47.33
2022-08-27T23:48:04.982Z,47.35
2022-08-27T23:51:07.937Z,47.40
2022-08-27T23:54:09.606Z,47.34
2022-08-27T23:57:11.611Z,47.46
